createdAt,value
2019-04-22T00:01:21.544Z,37.27
2019-04-22T00:03:52.497Z,37.21
2019-04-22T00:06:39.212Z,37.29
2019-04-22T00:09:15.975Z,37.25
2019-04-22T00:11:46.998Z,37.39
2019-04-22T00:14:06.992Z,37.24
2019-04-22T00:16:46.950Z,37.45
2019-04-22T00:19:30.399Z,37.15
2019-04-22T00:24:12.225Z,37.91
2019-04-22T00:26:45.881Z,37.87
2019-04-22T00:29:37.451Z,37.69
2019-04-22T00:31:57.426Z,37.64
2019-04-22T00:34:22.570Z,37.75
2019-04-22T00:36:54.324Z,37.91
2019-04-22T00:39:31.660Z,37.74
2019-04-22T00:41:57.015Z,38.51
2019-04-22T00:44:25.650Z,38.17
2019-04-22T00:47:02.836Z,38.87
2019-04-22T00:52:03.298Z,39.13
2019-04-22T00:54:28.186Z,40.09
2019-04-22T00:56:55.440Z,39.88
2019-04-22T00:59:23.529Z,40.05
2019-04-22T01:02:00.699Z,40.93
2019-04-22T01:04:36.475Z,40.83
2019-04-22T01:06:59.599Z,41.69
2019-04-22T01:09:32.616Z,41.70
2019-04-22T01:12:04.713Z,42.20
2019-04-22T01:14:28.070Z,42.67
2019-04-22T01:17:00.025Z,43.28
2019-04-22T01:19:34.792Z,42.82
2019-04-22T01:21:58.258Z,42.45
2019-04-22T01:24:28.051Z,42.99
2019-04-22T01:26:53.503Z,43.71
2019-04-22T01:29:22.831Z,43.50
2019-04-22T01:31:42.022Z,43.92
2019-04-22T01:34:23.239Z,43.81
2019-04-22T01:36:57.737Z,43.46
2019-04-22T01:39:39.017Z,44.29
2019-04-22T01:42:06.213Z,44.50
2019-04-22T01:47:10.431Z,44.66
2019-04-22T01:49:34.381Z,45.26
2019-04-22T01:52:05.189Z,44.72
2019-04-22T01:54:41.838Z,44.27
2019-04-22T01:57:03.321Z,44.72
2019-04-22T01:59:31.705Z,44.48
2019-04-22T02:02:09.278Z,44.55
2019-04-22T02:04:53.669Z,44.96
2019-04-22T02:07:09.644Z,45.34
2019-04-22T02:12:13.140Z,45.50
2019-04-22T02:14:39.514Z,45.94
2019-04-22T02:17:14.500Z,45.87
2019-04-22T02:22:07.095Z,46.11
2019-04-22T02:27:17.411Z,45.69
2019-04-22T02:29:43.483Z,45.74
2019-04-22T02:32:19.969Z,45.70
2019-04-22T02:35:02.083Z,45.79
2019-04-22T02:39:52.875Z,46.11
2019-04-22T02:44:48.470Z,46.08
2019-04-22T02:47:25.570Z,45.96
2019-04-22T02:57:35.762Z,46.72
2019-04-22T03:02:19.510Z,46.67
2019-04-22T03:04:49.153Z,46.75
2019-04-22T03:07:18.870Z,46.92
2019-04-22T03:09:50.805Z,47.17
2019-04-22T03:14:48.676Z,47.82
2019-04-22T03:17:25.712Z,48.03
2019-04-22T03:20:06.291Z,47.29
2019-04-22T03:25:05.546Z,47.71
2019-04-22T03:35:31.109Z,46.90
2019-04-22T03:40:16.083Z,47.49
2019-04-22T03:42:52.395Z,47.48
2019-04-22T03:45:19.726Z,47.57
2019-04-22T03:47:54.300Z,47.92
2019-04-22T03:50:20.727Z,48.08
2019-04-22T03:52:47.080Z,48.89
2019-04-22T03:55:09.111Z,48.76
2019-04-22T03:57:53.637Z,49.08
2019-04-22T04:00:19.848Z,49.16
2019-04-22T04:02:45.749Z,48.85
2019-04-22T04:05:24.367Z,48.87
2019-04-22T04:10:30.202Z,49.09
2019-04-22T04:12:49.274Z,49.36
2019-04-22T04:30:23.269Z,49.67
2019-04-22T04:33:09.244Z,49.88
2019-04-22T04:35:28.070Z,49.96
2019-04-22T04:37:54.992Z,50.57
2019-04-22T04:40:21.450Z,50.59
2019-04-22T04:42:46.367Z,50.91
2019-04-22T04:45:40.938Z,50.51
2019-04-22T04:50:21.877Z,50.06
2019-04-22T04:55:24.407Z,49.29
2019-04-22T04:57:57.610Z,49.86
2019-04-22T05:05:22.977Z,50.30
2019-04-22T05:15:21.596Z,50.98
2019-04-22T05:17:54.186Z,50.07
2019-04-22T05:20:28.336Z,49.96
2019-04-22T05:27:45.318Z,50.36
2019-04-22T05:32:44.560Z,50.29
2019-04-22T05:35:14.423Z,50.03
2019-04-22T05:37:54.708Z,50.65
2019-04-22T05:40:20.254Z,49.84
2019-04-22T05:42:46.264Z,50.41
2019-04-22T05:45:17.327Z,50.23
2019-04-22T05:47:46.305Z,49.25
2019-04-22T05:50:13.240Z,49.11
2019-04-22T05:52:51.513Z,50.42
2019-04-22T05:55:22.418Z,50.42
2019-04-22T05:57:57.718Z,49.89
2019-04-22T06:00:30.910Z,49.74
2019-04-22T06:02:56.587Z,49.11
2019-04-22T06:05:24.930Z,48.38
2019-04-22T06:07:53.774Z,49.16
2019-04-22T06:10:33.161Z,48.79
2019-04-22T06:12:59.656Z,49.89
2019-04-22T06:15:30.125Z,47.84
2019-04-22T06:18:09.403Z,46.55
2019-04-22T06:20:37.394Z,46.26
2019-04-22T06:23:12.351Z,48.62
2019-04-22T06:28:15.659Z,48.26
2019-04-22T06:30:53.412Z,47.86
2019-04-22T06:33:15.250Z,46.26
2019-04-22T06:35:45.771Z,46.75
2019-04-22T06:40:55.384Z,45.63
2019-04-22T06:43:16.123Z,44.50
2019-04-22T06:45:41.420Z,44.65
2019-04-22T06:50:46.504Z,44.42
2019-04-22T06:53:14.588Z,44.78
2019-04-22T06:58:10.583Z,41.04
2019-04-22T07:00:42.929Z,44.57
2019-04-22T07:05:47.559Z,43.59
2019-04-22T07:08:59.634Z,41.89
2019-04-22T07:10:49.237Z,43.63
2019-04-22T07:13:21.211Z,40.30
2019-04-22T07:15:57.462Z,41.32
2019-04-22T07:18:18.051Z,43.19
2019-04-22T07:23:24.786Z,41.67
2019-04-22T07:25:49.306Z,40.76
2019-04-22T07:28:17.755Z,41.39
2019-04-22T07:30:50.738Z,41.96
2019-04-22T07:33:19.187Z,41.15
2019-04-22T07:36:03.128Z,40.57
2019-04-22T07:38:25.494Z,41.14
2019-04-22T07:41:00.554Z,38.50
2019-04-22T07:45:58.823Z,38.65
2019-04-22T07:48:26.781Z,39.11
2019-04-22T07:53:15.869Z,38.96
2019-04-22T07:55:55.440Z,38.62
2019-04-22T08:00:53.016Z,37.39
2019-04-22T08:03:47.859Z,38.28
2019-04-22T08:05:58.816Z,38.26
2019-04-22T08:08:25.760Z,37.34
2019-04-22T08:10:56.802Z,36.11
2019-04-22T08:13:26.288Z,36.80
2019-04-22T08:18:32.974Z,35.99
2019-04-22T08:20:56.778Z,36.55
2019-04-22T08:25:55.732Z,36.80
2019-04-22T08:30:56.680Z,37.01
2019-04-22T08:33:29.096Z,36.88
2019-04-22T08:36:06.819Z,36.43
2019-04-22T08:39:25.194Z,36.37
2019-04-22T08:41:17.764Z,35.19
2019-04-22T08:43:47.682Z,33.70
2019-04-22T08:46:05.430Z,32.59
2019-04-22T08:48:48.396Z,32.21
2019-04-22T08:51:15.489Z,34.37
2019-04-22T08:53:53.731Z,35.69
2019-04-22T08:56:23.517Z,34.45
2019-04-22T08:58:48.740Z,33.67
2019-04-22T09:01:19.150Z,33.99
2019-04-22T09:03:47.002Z,33.58
2019-04-22T09:06:24.749Z,34.73
2019-04-22T09:08:49.830Z,32.77
2019-04-22T09:11:24.700Z,33.13
2019-04-22T09:16:30.147Z,30.41
2019-04-22T09:18:56.103Z,32.69
2019-04-22T09:21:26.466Z,31.17
2019-04-22T09:24:00.108Z,31.42
2019-04-22T09:26:30.352Z,31.03
2019-04-22T09:29:03.279Z,31.10
2019-04-22T09:31:23.841Z,29.58
2019-04-22T09:33:49.220Z,31.52
2019-04-22T09:36:29.040Z,28.34
2019-04-22T09:38:52.839Z,29.04
2019-04-22T09:41:28.872Z,30.09
2019-04-22T09:43:57.006Z,28.41
2019-04-22T09:46:28.414Z,27.31
2019-04-22T09:49:04.719Z,28.00
2019-04-22T09:51:26.865Z,28.10
2019-04-22T09:54:01.227Z,27.32
2019-04-22T09:58:55.692Z,26.98
2019-04-22T10:06:39.559Z,25.99
2019-04-22T10:09:12.707Z,28.42
2019-04-22T10:11:34.026Z,25.61
2019-04-22T10:14:03.920Z,24.39
2019-04-22T10:16:33.878Z,26.77
2019-04-22T10:19:01.018Z,27.20
2019-04-22T10:21:40.593Z,26.58
2019-04-22T10:23:59.506Z,26.08
2019-04-22T10:26:36.141Z,25.66
2019-04-22T10:29:01.769Z,24.86
2019-04-22T10:31:43.323Z,25.81
2019-04-22T10:33:49.616Z,23.94
2019-04-22T10:36:05.831Z,23.54
2019-04-22T10:38:34.684Z,25.81
2019-04-22T10:41:03.123Z,25.27
2019-04-22T10:43:32.828Z,24.36
2019-04-22T10:46:02.012Z,25.34
2019-04-22T10:48:30.466Z,22.16
2019-04-22T10:50:58.947Z,24.15
2019-04-22T10:53:27.418Z,22.49
2019-04-22T10:55:56.483Z,23.50
2019-04-22T10:58:24.969Z,23.02
2019-04-22T11:00:54.343Z,22.98
2019-04-22T11:03:24.520Z,22.97
2019-04-22T11:05:54.178Z,23.24
2019-04-22T11:08:31.906Z,23.27
2019-04-22T11:11:07.137Z,23.53
2019-04-22T11:13:24.291Z,23.47
2019-04-22T11:15:53.038Z,21.52
2019-04-22T11:18:21.611Z,23.52
2019-04-22T11:20:51.498Z,23.82
2019-04-22T11:23:20.580Z,22.54
2019-04-22T11:25:50.051Z,23.75
2019-04-22T11:28:19.932Z,22.27
2019-04-22T11:30:50.091Z,24.37
2019-04-22T11:33:18.550Z,21.84
2019-04-22T11:35:47.957Z,23.09
2019-04-22T11:38:22.529Z,23.39
2019-04-22T11:40:54.041Z,21.02
2019-04-22T11:43:21.977Z,23.47
2019-04-22T11:45:51.214Z,23.50
2019-04-22T11:48:19.871Z,23.19
2019-04-22T11:50:48.449Z,21.79
2019-04-22T11:53:16.895Z,22.59
2019-04-22T11:55:46.776Z,21.56
2019-04-22T11:58:15.252Z,22.92
2019-04-22T12:00:45.137Z,22.59
2019-04-22T12:03:14.749Z,21.47
2019-04-22T12:05:45.952Z,21.76
2019-04-22T12:08:15.539Z,21.92
2019-04-22T12:10:51.621Z,21.48
2019-04-22T12:13:15.660Z,21.92
2019-04-22T12:15:44.939Z,22.77
2019-04-22T12:18:15.164Z,23.25
2019-04-22T12:20:45.421Z,23.33
2019-04-22T12:23:14.800Z,23.02
2019-04-22T12:25:53.538Z,23.68
2019-04-22T12:28:15.036Z,21.99
2019-04-22T12:30:45.672Z,23.62
2019-04-22T12:33:14.911Z,20.71
2019-04-22T12:35:44.383Z,21.78
2019-04-22T12:38:15.248Z,21.66
2019-04-22T12:40:51.264Z,21.55
2019-04-22T12:43:16.142Z,22.34
2019-04-22T12:45:44.797Z,21.56
2019-04-22T12:48:14.842Z,22.24
2019-04-22T12:50:45.956Z,22.63
2019-04-22T12:53:17.737Z,24.68
2019-04-22T12:55:44.006Z,22.30
2019-04-22T12:58:13.800Z,22.00
2019-04-22T13:00:42.821Z,22.12
2019-04-22T13:03:11.238Z,22.32
2019-04-22T13:05:41.000Z,21.35
2019-04-22T13:08:09.751Z,22.39
2019-04-22T13:10:45.675Z,21.47
2019-04-22T13:13:09.175Z,21.25
2019-04-22T13:15:39.107Z,21.40
2019-04-22T13:18:17.013Z,23.09
2019-04-22T13:20:38.666Z,21.76
2019-04-22T13:23:07.758Z,23.90
2019-04-22T13:25:36.679Z,24.41
2019-04-22T13:28:05.224Z,21.62
2019-04-22T13:30:34.670Z,22.67
2019-04-22T13:33:04.975Z,21.61
2019-04-22T13:35:34.023Z,21.62
2019-04-22T13:38:02.458Z,22.57
2019-04-22T13:40:31.239Z,22.57
2019-04-22T13:43:00.747Z,22.91
2019-04-22T13:45:29.759Z,21.46
2019-04-22T13:48:16.444Z,21.46
2019-04-22T13:50:56.399Z,21.26
2019-04-22T13:58:14.614Z,23.42
2019-04-22T14:00:31.823Z,22.18
2019-04-22T14:03:08.938Z,22.93
2019-04-22T14:05:40.407Z,22.83
2019-04-22T14:08:10.701Z,22.58
2019-04-22T14:10:40.599Z,21.99
2019-04-22T14:13:09.917Z,22.09
2019-04-22T14:15:40.130Z,22.80
2019-04-22T14:18:08.900Z,24.87
2019-04-22T14:20:38.583Z,22.77
2019-04-22T14:23:08.356Z,23.61
2019-04-22T14:25:38.683Z,23.84
2019-04-22T14:28:13.114Z,22.68
2019-04-22T14:30:38.784Z,23.33
2019-04-22T14:33:07.347Z,23.27
2019-04-22T14:35:38.008Z,24.09
2019-04-22T14:38:06.528Z,24.27
2019-04-22T14:40:37.259Z,22.54
2019-04-22T14:43:28.979Z,22.31
2019-04-22T14:46:09.943Z,23.75
2019-04-22T14:48:36.308Z,23.59
2019-04-22T14:50:57.633Z,23.60
2019-04-22T14:53:27.594Z,22.94
2019-04-22T14:55:38.513Z,23.41
2019-04-22T14:58:09.012Z,23.34
2019-04-22T15:00:38.211Z,24.28
2019-04-22T15:03:08.233Z,24.84
2019-04-22T15:05:37.180Z,23.04
2019-04-22T15:08:07.084Z,23.43
2019-04-22T15:10:36.245Z,23.63
2019-04-22T15:13:05.380Z,23.82
2019-04-22T15:15:47.878Z,25.43
2019-04-22T15:18:28.806Z,26.42
2019-04-22T15:21:02.701Z,24.14
2019-04-22T15:23:31.126Z,24.51
2019-04-22T15:25:59.922Z,24.57
2019-04-22T15:28:29.215Z,23.65
2019-04-22T15:30:59.372Z,24.37
2019-04-22T15:33:27.934Z,25.41
2019-04-22T15:35:56.331Z,26.07
2019-04-22T15:38:26.143Z,24.27
2019-04-22T15:40:54.765Z,24.51
2019-04-22T15:43:26.919Z,23.82
2019-04-22T15:45:54.868Z,23.95
2019-04-22T15:48:24.978Z,24.41
2019-04-22T15:50:54.880Z,24.91
2019-04-22T15:53:23.532Z,23.47
2019-04-22T15:55:52.440Z,24.58
2019-04-22T15:58:21.816Z,25.09
2019-04-22T16:01:00.058Z,25.30
2019-04-22T16:03:20.908Z,25.63
2019-04-22T16:05:50.263Z,25.62
2019-04-22T16:08:21.157Z,24.07
2019-04-22T16:10:49.859Z,24.14
2019-04-22T16:13:23.250Z,24.91
2019-04-22T16:15:49.042Z,25.10
2019-04-22T16:18:18.249Z,25.86
2019-04-22T16:20:50.287Z,26.18
2019-04-22T16:23:23.975Z,25.60
2019-04-22T16:26:09.435Z,25.69
2019-04-22T16:28:39.512Z,25.46
2019-04-22T16:31:09.296Z,25.76
2019-04-22T16:33:40.314Z,25.29
2019-04-22T16:36:08.968Z,25.60
2019-04-22T16:38:37.516Z,25.46
2019-04-22T16:41:06.611Z,26.55
2019-04-22T16:43:36.530Z,25.81
2019-04-22T16:46:05.675Z,25.87
2019-04-22T16:48:35.486Z,26.29
2019-04-22T16:51:04.433Z,26.46
2019-04-22T16:53:32.897Z,26.41
2019-04-22T16:56:02.557Z,25.99
2019-04-22T16:58:32.648Z,26.54
2019-04-22T17:01:01.129Z,26.49
2019-04-22T17:03:48.840Z,28.23
2019-04-22T17:06:23.157Z,27.37
2019-04-22T17:08:52.874Z,27.53
2019-04-22T17:11:22.172Z,28.04
2019-04-22T17:13:50.813Z,27.57
2019-04-22T17:16:20.182Z,27.16
2019-04-22T17:18:50.080Z,27.51
2019-04-22T17:21:19.600Z,27.81
2019-04-22T17:23:49.764Z,28.23
2019-04-22T17:26:18.987Z,28.48
2019-04-22T17:28:49.222Z,28.38
2019-04-22T17:31:18.591Z,27.83
2019-04-22T17:33:48.720Z,28.42
2019-04-22T17:36:18.304Z,27.87
2019-04-22T17:38:56.462Z,28.36
2019-04-22T17:41:30.167Z,28.39
2019-04-22T17:44:15.303Z,28.20
2019-04-22T17:46:48.210Z,28.29
2019-04-22T17:49:38.317Z,29.69
2019-04-22T17:52:23.127Z,28.99
2019-04-22T17:54:50.144Z,28.81
2019-04-22T17:57:22.529Z,29.09
2019-04-22T17:59:50.465Z,28.87
2019-04-22T18:02:22.106Z,29.29
2019-04-22T18:04:38.711Z,29.20
2019-04-22T18:07:29.837Z,29.09
2019-04-22T18:10:23.395Z,29.44
2019-04-22T18:14:59.743Z,28.94
2019-04-22T18:17:30.572Z,29.09
2019-04-22T18:19:51.964Z,29.13
2019-04-22T18:22:19.812Z,30.83
2019-04-22T18:24:53.187Z,30.30
2019-04-22T18:27:42.998Z,29.56
2019-04-22T18:29:52.093Z,29.42
2019-04-22T18:32:17.981Z,29.28
2019-04-22T18:34:49.593Z,29.69
2019-04-22T18:37:23.684Z,29.81
2019-04-22T18:39:59.776Z,29.99
2019-04-22T18:42:23.829Z,28.94
2019-04-22T18:45:11.505Z,29.88
2019-04-22T18:47:25.381Z,29.21
2019-04-22T18:49:55.460Z,29.91
2019-04-22T18:52:38.005Z,29.76
2019-04-22T18:55:14.532Z,29.68
2019-04-22T18:57:59.076Z,29.65
2019-04-22T19:00:21.336Z,30.26
2019-04-22T19:02:57.216Z,29.91
2019-04-22T19:05:40.206Z,29.87
2019-04-22T19:08:18.230Z,30.14
2019-04-22T19:10:57.629Z,30.06
2019-04-22T19:13:48.883Z,30.44
2019-04-22T19:15:54.107Z,30.28
2019-04-22T19:18:27.069Z,29.94
2019-04-22T19:20:51.876Z,29.79
2019-04-22T19:23:17.914Z,29.81
2019-04-22T19:25:42.632Z,29.59
2019-04-22T19:28:23.934Z,29.59
2019-04-22T19:31:01.511Z,29.82
2019-04-22T19:33:27.050Z,29.73
2019-04-22T19:35:43.522Z,29.98
2019-04-22T19:38:12.226Z,30.08
2019-04-22T19:41:00.913Z,29.86
2019-04-22T19:43:22.617Z,30.08
2019-04-22T19:45:48.928Z,30.13
2019-04-22T19:48:30.772Z,29.76
2019-04-22T19:50:59.002Z,29.90
2019-04-22T19:53:22.728Z,30.00
2019-04-22T19:55:49.449Z,30.04
2019-04-22T19:58:20.102Z,30.12
2019-04-22T20:00:50.668Z,30.44
2019-04-22T20:03:36.262Z,30.50
2019-04-22T20:06:08.849Z,30.53
2019-04-22T20:08:34.248Z,30.86
2019-04-22T20:11:15.128Z,30.95
2019-04-22T20:13:41.411Z,30.93
2019-04-22T20:15:59.677Z,31.27
2019-04-22T20:21:12.965Z,30.95
2019-04-22T20:23:35.132Z,31.40
2019-04-22T20:26:05.082Z,30.97
2019-04-22T20:28:39.212Z,31.14
2019-04-22T20:31:09.854Z,30.74
2019-04-22T20:33:44.471Z,31.01
2019-04-22T20:36:12.623Z,30.42
2019-04-22T20:38:43.786Z,30.58
2019-04-22T20:41:07.281Z,30.23
2019-04-22T20:43:49.599Z,30.65
2019-04-22T20:46:13.506Z,30.80
2019-04-22T20:48:46.871Z,30.64
2019-04-22T20:51:11.008Z,31.21
2019-04-22T20:53:44.088Z,31.01
2019-04-22T20:56:13.071Z,30.97
2019-04-22T20:58:42.792Z,30.65
2019-04-22T21:01:03.405Z,30.90
2019-04-22T21:03:33.628Z,31.48
2019-04-22T21:06:08.732Z,31.08
2019-04-22T21:08:42.344Z,30.80
2019-04-22T21:11:07.775Z,30.75
2019-04-22T21:13:46.621Z,31.23
2019-04-22T21:16:15.281Z,31.67
2019-04-22T21:18:36.131Z,31.06
2019-04-22T21:21:15.130Z,31.12
2019-04-22T21:23:40.944Z,31.52
2019-04-22T21:26:13.905Z,31.20
2019-04-22T21:28:44.526Z,31.32
2019-04-22T21:31:18.894Z,31.57
2019-04-22T21:33:48.780Z,31.59
2019-04-22T21:36:22.142Z,31.62
2019-04-22T21:38:43.985Z,31.77
2019-04-22T21:41:17.708Z,31.99
2019-04-22T21:43:48.108Z,31.94
2019-04-22T21:46:20.734Z,32.04
2019-04-22T21:48:47.978Z,32.23
2019-04-22T21:51:19.161Z,32.31
2019-04-22T21:56:40.997Z,32.68
2019-04-22T21:58:50.629Z,32.83
2019-04-22T22:01:44.721Z,32.83
2019-04-22T22:04:15.322Z,33.30
2019-04-22T22:06:33.640Z,33.18
2019-04-22T22:09:08.963Z,33.47
2019-04-22T22:11:35.959Z,33.77
2019-04-22T22:14:09.106Z,33.87
2019-04-22T22:16:33.537Z,33.98
2019-04-22T22:19:11.213Z,34.19
2019-04-22T22:21:47.401Z,34.11
2019-04-22T22:24:08.915Z,34.28
2019-04-22T22:26:46.214Z,34.31
2019-04-22T22:29:24.590Z,34.19
2019-04-22T22:31:48.462Z,34.44
2019-04-22T22:34:13.615Z,34.59
2019-04-22T22:36:36.459Z,34.53
2019-04-22T22:39:05.792Z,34.81
2019-04-22T22:41:21.625Z,34.66
2019-04-22T22:43:52.753Z,34.68
2019-04-22T22:46:31.942Z,34.72
2019-04-22T22:49:18.718Z,34.57
2019-04-22T22:52:12.695Z,35.10
2019-04-22T22:54:17.589Z,34.70
2019-04-22T22:56:47.518Z,34.97
2019-04-22T22:59:17.922Z,34.86
2019-04-22T23:01:45.446Z,34.91
2019-04-22T23:04:20.331Z,34.91
2019-04-22T23:06:48.312Z,35.35
2019-04-22T23:09:12.985Z,35.28
2019-04-22T23:12:00.255Z,34.83
2019-04-22T23:14:14.565Z,34.83
2019-04-22T23:16:33.900Z,35.20
2019-04-22T23:19:04.457Z,35.70
2019-04-22T23:21:39.645Z,35.03
2019-04-22T23:24:21.272Z,35.68
2019-04-22T23:26:59.730Z,35.64
2019-04-22T23:29:28.523Z,35.57
2019-04-22T23:32:05.485Z,36.47
2019-04-22T23:34:38.855Z,35.94
2019-04-22T23:37:17.795Z,35.87
2019-04-22T23:40:02.190Z,36.24
2019-04-22T23:42:41.791Z,36.57
2019-04-22T23:44:55.270Z,37.40
2019-04-22T23:47:18.521Z,36.27
2019-04-22T23:49:56.361Z,36.78
2019-04-22T23:52:30.650Z,37.31
2019-04-22T23:55:03.635Z,37.44
2019-04-22T23:57:33.240Z,38.04
